Terminal Aerodrome Forecast
Issued by NWS Cleveland, OH

Home | Current Version | Previous Version | Text Only | Print | Product List | Glossary On
Versions: 1 2 3 4 5 6 7 8 9 10 11 12 13 14 15 16 17 18 19 20 21 22 23 24 25 26 27 28 29 30 31 32 33
000
FTUS41 KCLE 031124
TAFERI
TAF
KERI 031124Z 0312/0412 31015G25KT 5SM TSRA BKN040CB OVC080
     FM031300 26014G22KT P6SM SCT070 BKN120
     FM032300 26006KT P6SM SCT080
     FM040400 29005KT P6SM SCT080=

USA.gov is the U.S. government's official web portal to all federal, state and local government web resources and services.